sensor_id;sensor_type;location;lat;lon;timestamp;pressure;altitude;pressure_sealevel;temperature;humidity
57024;BME280;42916;54.346;18.562;2023-01-28T00:01:39;101459.08;;;-1.05;84.62
57024;BME280;42916;54.346;18.562;2023-01-28T00:04:06;101455.47;;;-1.08;84.67
57024;BME280;42916;54.346;18.562;2023-01-28T00:06:33;101459.59;;;-1.10;84.37
57024;BME280;42916;54.346;18.562;2023-01-28T00:09:01;101459.11;;;-1.13;84.25
57024;BME280;42916;54.346;18.562;2023-01-28T00:11:28;101460.45;;;-1.14;84.39
57024;BME280;42916;54.346;18.562;2023-01-28T00:13:54;101464.89;;;-1.15;84.30
57024;BME280;42916;54.346;18.562;2023-01-28T00:16:21;101464.56;;;-1.16;84.25
57024;BME280;42916;54.346;18.562;2023-01-28T00:18:48;101465.70;;;-1.18;84.31
57024;BME280;42916;54.346;18.562;2023-01-28T00:21:15;101461.51;;;-1.21;84.19
57024;BME280;42916;54.346;18.562;2023-01-28T00:23:46;101461.16;;;-1.21;84.33
57024;BME280;42916;54.346;18.562;2023-01-28T00:26:13;101457.64;;;-1.20;84.19
57024;BME280;42916;54.346;18.562;2023-01-28T00:28:42;101458.16;;;-1.18;84.25
57024;BME280;42916;54.346;18.562;2023-01-28T00:31:13;101454.83;;;-1.16;84.24
57024;BME280;42916;54.346;18.562;2023-01-28T00:33:43;101454.65;;;-1.15;84.20
57024;BME280;42916;54.346;18.562;2023-01-28T00:36:11;101460.27;;;-1.14;84.43
57024;BME280;42916;54.346;18.562;2023-01-28T00:38:38;101461.58;;;-1.12;84.35
57024;BME280;42916;54.346;18.562;2023-01-28T00:41:14;101459.36;;;-1.13;84.24
57024;BME280;42916;54.346;18.562;2023-01-28T00:43:42;101459.80;;;-1.12;84.30
57024;BME280;42916;54.346;18.562;2023-01-28T00:46:11;101466.33;;;-1.14;84.42
57024;BME280;42916;54.346;18.562;2023-01-28T00:48:40;101462.45;;;-1.16;84.17
57024;BME280;42916;54.346;18.562;2023-01-28T00:51:09;101458.49;;;-1.17;84.35
57024;BME280;42916;54.346;18.562;2023-01-28T00:53:37;101453.58;;;-1.20;84.28
57024;BME280;42916;54.346;18.562;2023-01-28T00:56:06;101452.81;;;-1.21;84.13
57024;BME280;42916;54.346;18.562;2023-01-28T00:58:33;101452.44;;;-1.23;84.29
57024;BME280;42916;54.346;18.562;2023-01-28T01:01:11;101449.94;;;-1.24;84.29
57024;BME280;42916;54.346;18.562;2023-01-28T01:03:38;101455.05;;;-1.26;84.22
57024;BME280;42916;54.346;18.562;2023-01-28T01:06:06;101447.41;;;-1.28;84.12
57024;BME280;42916;54.346;18.562;2023-01-28T01:08:33;101448.89;;;-1.26;84.09
57024;BME280;42916;54.346;18.562;2023-01-28T01:11:02;101450.36;;;-1.25;83.96
57024;BME280;42916;54.346;18.562;2023-01-28T01:13:31;101445.66;;;-1.22;84.09
57024;BME280;42916;54.346;18.562;2023-01-28T01:16:01;101442.05;;;-1.24;84.14
57024;BME280;42916;54.346;18.562;2023-01-28T01:18:28;101443.84;;;-1.24;84.32
57024;BME280;42916;54.346;18.562;2023-01-28T01:20:55;101447.59;;;-1.22;84.38
57024;BME280;42916;54.346;18.562;2023-01-28T01:23:25;101448.65;;;-1.24;84.25
57024;BME280;42916;54.346;18.562;2023-01-28T01:25:52;101450.85;;;-1.28;84.04
57024;BME280;42916;54.346;18.562;2023-01-28T01:28:19;101455.89;;;-1.28;84.04
57024;BME280;42916;54.346;18.562;2023-01-28T01:30:48;101452.89;;;-1.30;83.90
57024;BME280;42916;54.346;18.562;2023-01-28T01:33:15;101455.14;;;-1.32;83.83
57024;BME280;42916;54.346;18.562;2023-01-28T01:35:42;101454.17;;;-1.33;83.80
57024;BME280;42916;54.346;18.562;2023-01-28T01:38:09;101456.67;;;-1.33;83.61
57024;BME280;42916;54.346;18.562;2023-01-28T01:40:36;101452.23;;;-1.33;83.71
57024;BME280;42916;54.346;18.562;2023-01-28T01:43:14;101449.48;;;-1.34;83.36
57024;BME280;42916;54.346;18.562;2023-01-28T01:45:42;101446.83;;;-1.36;83.28
57024;BME280;42916;54.346;18.562;2023-01-28T01:48:17;101454.36;;;-1.37;83.29
57024;BME280;42916;54.346;18.562;2023-01-28T01:50:52;101448.45;;;-1.38;83.23
57024;BME280;42916;54.346;18.562;2023-01-28T01:53:22;101447.97;;;-1.39;83.03
57024;BME280;42916;54.346;18.562;2023-01-28T01:55:51;101447.52;;;-1.41;83.07
57024;BME280;42916;54.346;18.562;2023-01-28T01:58:23;101450.84;;;-1.44;82.97
57024;BME280;42916;54.346;18.562;2023-01-28T02:00:51;101445.27;;;-1.47;82.85
57024;BME280;42916;54.346;18.562;2023-01-28T02:03:23;101440.77;;;-1.48;83.16
57024;BME280;42916;54.346;18.562;2023-01-28T02:05:52;101441.80;;;-1.48;83.19
57024;BME280;42916;54.346;18.562;2023-01-28T02:08:20;101442.70;;;-1.48;82.93
57024;BME280;42916;54.346;18.562;2023-01-28T02:11:04;101446.39;;;-1.48;83.10
57024;BME280;42916;54.346;18.562;2023-01-28T02:13:39;101440.38;;;-1.45;83.16
57024;BME280;42916;54.346;18.562;2023-01-28T02:16:07;101439.27;;;-1.41;83.21
57024;BME280;42916;54.346;18.562;2023-01-28T02:18:35;101439.93;;;-1.38;83.52
57024;BME280;42916;54.346;18.562;2023-01-28T02:24:11;101444.70;;;-1.29;83.73
57024;BME280;42916;54.346;18.562;2023-01-28T02:29:41;101437.84;;;-1.26;83.65
57024;BME280;42916;54.346;18.562;2023-01-28T02:32:24;101438.11;;;-1.27;83.52
57024;BME280;42916;54.346;18.562;2023-01-28T02:35:13;101437.02;;;-1.29;83.47
57024;BME280;42916;54.346;18.562;2023-01-28T02:37:52;101437.11;;;-1.30;83.72
57024;BME280;42916;54.346;18.562;2023-01-28T02:40:24;101437.77;;;-1.31;83.72
57024;BME280;42916;54.346;18.562;2023-01-28T02:42:56;101437.01;;;-1.30;83.74
57024;BME280;42916;54.346;18.562;2023-01-28T02:45:31;101435.23;;;-1.30;83.70
57024;BME280;42916;54.346;18.562;2023-01-28T02:48:20;101434.60;;;-1.31;83.91
57024;BME280;42916;54.346;18.562;2023-01-28T02:50:58;101435.83;;;-1.31;84.04
57024;BME280;42916;54.346;18.562;2023-01-28T02:53:44;101433.78;;;-1.32;83.80
57024;BME280;42916;54.346;18.562;2023-01-28T02:56:41;101431.05;;;-1.33;83.73
57024;BME280;42916;54.346;18.562;2023-01-28T02:59:29;101432.85;;;-1.31;83.84
57024;BME280;42916;54.346;18.562;2023-01-28T03:02:21;101436.85;;;-1.29;83.89
57024;BME280;42916;54.346;18.562;2023-01-28T03:05:04;101432.29;;;-1.28;83.84
57024;BME280;42916;54.346;18.562;2023-01-28T03:07:34;101430.13;;;-1.27;83.82
57024;BME280;42916;54.346;18.562;2023-01-28T03:10:06;101430.88;;;-1.26;83.88
57024;BME280;42916;54.346;18.562;2023-01-28T03:12:38;101428.48;;;-1.25;83.99
57024;BME280;42916;54.346;18.562;2023-01-28T03:15:28;101426.39;;;-1.24;84.20
57024;BME280;42916;54.346;18.562;2023-01-28T03:18:35;101422.77;;;-1.23;84.22
57024;BME280;42916;54.346;18.562;2023-01-28T03:21:30;101426.42;;;-1.24;84.12
57024;BME280;42916;54.346;18.562;2023-01-28T03:24:20;101431.58;;;-1.26;84.32
57024;BME280;42916;54.346;18.562;2023-01-28T03:27:48;101426.42;;;-1.28;84.59
57024;BME280;42916;54.346;18.562;2023-01-28T03:31:24;101418.05;;;-1.28;84.71
57024;BME280;42916;54.346;18.562;2023-01-28T03:33:53;101418.38;;;-1.27;84.84
57024;BME280;42916;54.346;18.562;2023-01-28T03:36:39;101414.78;;;-1.27;84.86
57024;BME280;42916;54.346;18.562;2023-01-28T03:39:26;101419.58;;;-1.29;84.82
57024;BME280;42916;54.346;18.562;2023-01-28T03:42:06;101418.99;;;-1.30;84.89
57024;BME280;42916;54.346;18.562;2023-01-28T03:44:34;101416.68;;;-1.28;85.01
57024;BME280;42916;54.346;18.562;2023-01-28T03:47:25;101405.60;;;-1.26;85.00
57024;BME280;42916;54.346;18.562;2023-01-28T03:49:54;101409.49;;;-1.26;85.24
57024;BME280;42916;54.346;18.562;2023-01-28T03:52:30;101411.84;;;-1.24;85.38
57024;BME280;42916;54.346;18.562;2023-01-28T03:55:16;101413.57;;;-1.24;85.34
57024;BME280;42916;54.346;18.562;2023-01-28T03:57:43;101417.73;;;-1.21;85.37
57024;BME280;42916;54.346;18.562;2023-01-28T04:00:12;101416.95;;;-1.20;85.26
57024;BME280;42916;54.346;18.562;2023-01-28T04:02:42;101416.05;;;-1.20;85.30
57024;BME280;42916;54.346;18.562;2023-01-28T04:05:12;101414.27;;;-1.20;85.47
57024;BME280;42916;54.346;18.562;2023-01-28T04:07:54;101417.72;;;-1.21;85.25
57024;BME280;42916;54.346;18.562;2023-01-28T04:10:40;101422.27;;;-1.25;85.23
57024;BME280;42916;54.346;18.562;2023-01-28T04:13:36;101423.52;;;-1.29;85.43
57024;BME280;42916;54.346;18.562;2023-01-28T04:16:03;101421.26;;;-1.31;85.32
57024;BME280;42916;54.346;18.562;2023-01-28T04:18:37;101417.09;;;-1.33;85.32
57024;BME280;42916;54.346;18.562;2023-01-28T04:21:04;101413.34;;;-1.32;85.41
57024;BME280;42916;54.346;18.562;2023-01-28T04:23:31;101415.81;;;-1.32;85.56
57024;BME280;42916;54.346;18.562;2023-01-28T04:25:59;101408.05;;;-1.30;85.27
57024;BME280;42916;54.346;18.562;2023-01-28T04:28:26;101411.84;;;-1.28;85.31
57024;BME280;42916;54.346;18.562;2023-01-28T04:30:53;101417.14;;;-1.24;85.19
57024;BME280;42916;54.346;18.562;2023-01-28T04:33:32;101418.91;;;-1.20;85.40
57024;BME280;42916;54.346;18.562;2023-01-28T04:36:10;101417.81;;;-1.16;85.51
57024;BME280;42916;54.346;18.562;2023-01-28T04:39:05;101411.88;;;-1.12;85.66
57024;BME280;42916;54.346;18.562;2023-01-28T04:41:38;101410.92;;;-1.08;85.72
57024;BME280;42916;54.346;18.562;2023-01-28T04:44:18;101415.44;;;-1.05;85.66
57024;BME280;42916;54.346;18.562;2023-01-28T04:46:56;101415.52;;;-1.04;85.56
57024;BME280;42916;54.346;18.562;2023-01-28T04:49:55;101410.08;;;-1.05;85.43
57024;BME280;42916;54.346;18.562;2023-01-28T04:52:32;101410.61;;;-1.08;85.34
57024;BME280;42916;54.346;18.562;2023-01-28T04:55:26;101415.65;;;-1.12;85.39
57024;BME280;42916;54.346;18.562;2023-01-28T04:57:53;101416.05;;;-1.15;85.42
57024;BME280;42916;54.346;18.562;2023-01-28T05:00:20;101414.76;;;-1.16;85.64
57024;BME280;42916;54.346;18.562;2023-01-28T05:02:47;101412.56;;;-1.17;85.50
57024;BME280;42916;54.346;18.562;2023-01-28T05:05:14;101416.41;;;-1.20;85.73
57024;BME280;42916;54.346;18.562;2023-01-28T05:08:01;101417.33;;;-1.22;85.78
57024;BME280;42916;54.346;18.562;2023-01-28T05:10:29;101420.99;;;-1.23;85.91
57024;BME280;42916;54.346;18.562;2023-01-28T05:12:56;101425.55;;;-1.24;85.98
57024;BME280;42916;54.346;18.562;2023-01-28T05:15:22;101423.80;;;-1.23;85.90
57024;BME280;42916;54.346;18.562;2023-01-28T05:17:54;101421.38;;;-1.22;85.72
57024;BME280;42916;54.346;18.562;2023-01-28T05:20:23;101420.55;;;-1.21;85.74
57024;BME280;42916;54.346;18.562;2023-01-28T05:22:50;101421.38;;;-1.18;85.85
57024;BME280;42916;54.346;18.562;2023-01-28T05:25:22;101424.16;;;-1.16;86.05
57024;BME280;42916;54.346;18.562;2023-01-28T05:27:51;101427.76;;;-1.14;86.14
57024;BME280;42916;54.346;18.562;2023-01-28T05:30:19;101434.08;;;-1.11;86.20
57024;BME280;42916;54.346;18.562;2023-01-28T05:32:46;101434.48;;;-1.08;86.21
57024;BME280;42916;54.346;18.562;2023-01-28T05:35:16;101433.52;;;-1.08;86.21
57024;BME280;42916;54.346;18.562;2023-01-28T05:37:44;101427.95;;;-1.07;86.16
57024;BME280;42916;54.346;18.562;2023-01-28T05:40:12;101425.47;;;-1.07;86.05
57024;BME280;42916;54.346;18.562;2023-01-28T05:42:39;101424.52;;;-1.10;85.98
57024;BME280;42916;54.346;18.562;2023-01-28T05:45:26;101422.45;;;-1.13;86.03
57024;BME280;42916;54.346;18.562;2023-01-28T05:48:06;101420.71;;;-1.15;86.05
57024;BME280;42916;54.346;18.562;2023-01-28T05:50:46;101423.27;;;-1.19;85.97
57024;BME280;42916;54.346;18.562;2023-01-28T05:53:36;101423.84;;;-1.21;85.85
57024;BME280;42916;54.346;18.562;2023-01-28T05:56:03;101430.96;;;-1.23;85.84
57024;BME280;42916;54.346;18.562;2023-01-28T05:58:31;101427.95;;;-1.25;85.78
57024;BME280;42916;54.346;18.562;2023-01-28T06:01:01;101432.45;;;-1.26;85.89
57024;BME280;42916;54.346;18.562;2023-01-28T06:03:35;101429.71;;;-1.25;85.98
57024;BME280;42916;54.346;18.562;2023-01-28T06:06:02;101419.48;;;-1.24;85.87
57024;BME280;42916;54.346;18.562;2023-01-28T06:08:31;101417.33;;;-1.22;85.89
57024;BME280;42916;54.346;18.562;2023-01-28T06:10:58;101417.76;;;-1.19;86.02
57024;BME280;42916;54.346;18.562;2023-01-28T06:13:25;101421.86;;;-1.16;86.11
57024;BME280;42916;54.346;18.562;2023-01-28T06:16:24;101419.08;;;-1.15;86.07
57024;BME280;42916;54.346;18.562;2023-01-28T06:19:11;101417.83;;;-1.15;86.18
57024;BME280;42916;54.346;18.562;2023-01-28T06:21:38;101421.39;;;-1.13;86.33
57024;BME280;42916;54.346;18.562;2023-01-28T06:24:05;101417.84;;;-1.15;85.87
57024;BME280;42916;54.346;18.562;2023-01-28T06:26:31;101413.66;;;-1.18;86.00
57024;BME280;42916;54.346;18.562;2023-01-28T06:28:58;101412.95;;;-1.19;86.04
57024;BME280;42916;54.346;18.562;2023-01-28T06:31:25;101412.29;;;-1.20;86.04
57024;BME280;42916;54.346;18.562;2023-01-28T06:33:52;101413.16;;;-1.22;86.20
57024;BME280;42916;54.346;18.562;2023-01-28T06:36:19;101411.48;;;-1.23;86.17
57024;BME280;42916;54.346;18.562;2023-01-28T06:38:45;101417.08;;;-1.23;85.99
57024;BME280;42916;54.346;18.562;2023-01-28T06:41:12;101422.95;;;-1.23;85.96
57024;BME280;42916;54.346;18.562;2023-01-28T06:43:39;101421.08;;;-1.24;85.99
57024;BME280;42916;54.346;18.562;2023-01-28T06:46:06;101426.35;;;-1.25;85.85
57024;BME280;42916;54.346;18.562;2023-01-28T06:48:33;101430.77;;;-1.27;86.01
57024;BME280;42916;54.346;18.562;2023-01-28T06:51:00;101434.08;;;-1.26;85.68
57024;BME280;42916;54.346;18.562;2023-01-28T06:53:26;101431.77;;;-1.24;85.82
57024;BME280;42916;54.346;18.562;2023-01-28T06:55:53;101429.73;;;-1.21;85.70
57024;BME280;42916;54.346;18.562;2023-01-28T06:58:20;101438.27;;;-1.18;85.91
57024;BME280;42916;54.346;18.562;2023-01-28T07:00:47;101430.59;;;-1.16;85.92
57024;BME280;42916;54.346;18.562;2023-01-28T07:03:15;101437.32;;;-1.15;85.94
57024;BME280;42916;54.346;18.562;2023-01-28T07:05:42;101432.53;;;-1.14;86.21
57024;BME280;42916;54.346;18.562;2023-01-28T07:08:08;101436.77;;;-1.12;86.20
57024;BME280;42916;54.346;18.562;2023-01-28T07:10:35;101433.85;;;-1.11;86.37
57024;BME280;42916;54.346;18.562;2023-01-28T07:13:02;101437.03;;;-1.09;86.40
57024;BME280;42916;54.346;18.562;2023-01-28T07:15:29;101438.30;;;-1.09;86.43
57024;BME280;42916;54.346;18.562;2023-01-28T07:17:56;101440.59;;;-1.10;86.49
57024;BME280;42916;54.346;18.562;2023-01-28T07:20:23;101442.55;;;-1.12;86.50
57024;BME280;42916;54.346;18.562;2023-01-28T07:22:50;101437.02;;;-1.12;86.71
57024;BME280;42916;54.346;18.562;2023-01-28T07:25:17;101436.33;;;-1.10;86.70
57024;BME280;42916;54.346;18.562;2023-01-28T07:27:51;101438.90;;;-1.10;86.57
57024;BME280;42916;54.346;18.562;2023-01-28T07:30:19;101438.88;;;-1.08;86.49
57024;BME280;42916;54.346;18.562;2023-01-28T07:32:52;101438.11;;;-1.05;86.20
57024;BME280;42916;54.346;18.562;2023-01-28T07:35:20;101441.95;;;-1.01;86.07
57024;BME280;42916;54.346;18.562;2023-01-28T07:37:55;101449.17;;;-0.99;85.95
57024;BME280;42916;54.346;18.562;2023-01-28T07:40:23;101447.94;;;-0.95;85.88
57024;BME280;42916;54.346;18.562;2023-01-28T07:42:50;101447.66;;;-0.92;85.89
57024;BME280;42916;54.346;18.562;2023-01-28T07:45:23;101446.89;;;-0.91;85.73
57024;BME280;42916;54.346;18.562;2023-01-28T07:47:55;101448.95;;;-0.91;85.48
57024;BME280;42916;54.346;18.562;2023-01-28T07:50:23;101443.17;;;-0.92;85.50
57024;BME280;42916;54.346;18.562;2023-01-28T07:52:50;101444.81;;;-0.94;85.34
57024;BME280;42916;54.346;18.562;2023-01-28T07:55:17;101445.94;;;-0.95;85.40
57024;BME280;42916;54.346;18.562;2023-01-28T07:57:54;101442.48;;;-0.94;85.39
57024;BME280;42916;54.346;18.562;2023-01-28T08:00:23;101447.14;;;-0.94;85.37
57024;BME280;42916;54.346;18.562;2023-01-28T08:02:55;101447.65;;;-0.92;85.54
57024;BME280;42916;54.346;18.562;2023-01-28T08:05:22;101443.58;;;-0.89;85.51
57024;BME280;42916;54.346;18.562;2023-01-28T08:07:50;101436.33;;;-0.86;85.52
57024;BME280;42916;54.346;18.562;2023-01-28T08:10:17;101430.67;;;-0.83;85.41
57024;BME280;42916;54.346;18.562;2023-01-28T08:12:54;101427.05;;;-0.81;85.33
57024;BME280;42916;54.346;18.562;2023-01-28T08:15:21;101426.59;;;-0.78;85.22
57024;BME280;42916;54.346;18.562;2023-01-28T08:17:49;101425.40;;;-0.73;85.32
57024;BME280;42916;54.346;18.562;2023-01-28T08:20:16;101421.27;;;-0.67;85.18
57024;BME280;42916;54.346;18.562;2023-01-28T08:22:43;101421.27;;;-0.60;85.14
57024;BME280;42916;54.346;18.562;2023-01-28T08:25:10;101424.68;;;-0.53;85.18
57024;BME280;42916;54.346;18.562;2023-01-28T08:27:37;101421.08;;;-0.48;85.01
57024;BME280;42916;54.346;18.562;2023-01-28T08:30:04;101423.06;;;-0.45;84.81
57024;BME280;42916;54.346;18.562;2023-01-28T08:32:31;101426.96;;;-0.41;84.61
57024;BME280;42916;54.346;18.562;2023-01-28T08:34:58;101427.25;;;-0.39;84.42
57024;BME280;42916;54.346;18.562;2023-01-28T08:37:25;101433.54;;;-0.37;84.10
57024;BME280;42916;54.346;18.562;2023-01-28T08:39:52;101432.20;;;-0.36;83.70
57024;BME280;42916;54.346;18.562;2023-01-28T08:42:19;101438.87;;;-0.33;83.14
57024;BME280;42916;54.346;18.562;2023-01-28T08:44:46;101438.95;;;-0.31;82.83
57024;BME280;42916;54.346;18.562;2023-01-28T08:47:13;101438.00;;;-0.29;82.70
57024;BME280;42916;54.346;18.562;2023-01-28T08:49:40;101440.73;;;-0.26;82.54
57024;BME280;42916;54.346;18.562;2023-01-28T08:52:07;101444.77;;;-0.25;82.35
57024;BME280;42916;54.346;18.562;2023-01-28T08:54:34;101446.29;;;-0.24;82.51
57024;BME280;42916;54.346;18.562;2023-01-28T08:57:02;101450.79;;;-0.23;82.27
57024;BME280;42916;54.346;18.562;2023-01-28T08:59:29;101449.83;;;-0.23;82.33
57024;BME280;42916;54.346;18.562;2023-01-28T09:01:56;101451.64;;;-0.21;82.41
57024;BME280;42916;54.346;18.562;2023-01-28T09:04:22;101453.73;;;-0.19;82.33
57024;BME280;42916;54.346;18.562;2023-01-28T09:06:49;101452.55;;;-0.14;82.69
57024;BME280;42916;54.346;18.562;2023-01-28T09:09:16;101447.89;;;-0.09;82.48
57024;BME280;42916;54.346;18.562;2023-01-28T09:11:43;101443.15;;;-0.06;82.07
57024;BME280;42916;54.346;18.562;2023-01-28T09:14:10;101443.91;;;-0.03;81.65
57024;BME280;42916;54.346;18.562;2023-01-28T09:16:37;101441.56;;;0.01;81.48
57024;BME280;42916;54.346;18.562;2023-01-28T09:19:03;101443.45;;;0.03;81.31
57024;BME280;42916;54.346;18.562;2023-01-28T09:21:30;101443.98;;;0.07;80.86
57024;BME280;42916;54.346;18.562;2023-01-28T09:23:57;101440.61;;;0.12;80.62
57024;BME280;42916;54.346;18.562;2023-01-28T09:26:24;101439.33;;;0.17;80.54
57024;BME280;42916;54.346;18.562;2023-01-28T09:28:51;101447.88;;;0.22;80.46
57024;BME280;42916;54.346;18.562;2023-01-28T09:31:18;101447.63;;;0.28;80.42
57024;BME280;42916;54.346;18.562;2023-01-28T09:33:46;101449.63;;;0.34;80.21
57024;BME280;42916;54.346;18.562;2023-01-28T09:36:13;101450.10;;;0.38;79.97
57024;BME280;42916;54.346;18.562;2023-01-28T09:38:40;101447.58;;;0.42;79.89
57024;BME280;42916;54.346;18.562;2023-01-28T09:41:28;101451.03;;;0.45;79.89
57024;BME280;42916;54.346;18.562;2023-01-28T09:46:36;101445.25;;;0.49;79.89
57024;BME280;42916;54.346;18.562;2023-01-28T09:49:06;101445.17;;;0.46;79.88
57024;BME280;42916;54.346;18.562;2023-01-28T09:51:48;101449.77;;;0.42;79.95
57024;BME280;42916;54.346;18.562;2023-01-28T09:54:28;101449.84;;;0.39;79.94
57024;BME280;42916;54.346;18.562;2023-01-28T09:57:25;101441.13;;;0.32;79.81
57024;BME280;42916;54.346;18.562;2023-01-28T09:59:53;101437.13;;;0.29;80.11
57024;BME280;42916;54.346;18.562;2023-01-28T10:02:32;101436.38;;;0.28;80.15
57024;BME280;42916;54.346;18.562;2023-01-28T10:08:17;101434.60;;;0.31;80.39
57024;BME280;42916;54.346;18.562;2023-01-28T10:13:30;101437.13;;;0.40;80.25
57024;BME280;42916;54.346;18.562;2023-01-28T10:18:52;101430.66;;;0.55;79.84
57024;BME280;42916;54.346;18.562;2023-01-28T10:24:04;101421.17;;;0.62;79.65
57024;BME280;42916;54.346;18.562;2023-01-28T10:26:38;101423.09;;;0.63;79.20
57024;BME280;42916;54.346;18.562;2023-01-28T10:29:14;101424.17;;;0.63;79.01
57024;BME280;42916;54.346;18.562;2023-01-28T10:32:00;101416.77;;;0.63;78.97
57024;BME280;42916;54.346;18.562;2023-01-28T10:34:29;101412.09;;;0.65;78.41
57024;BME280;42916;54.346;18.562;2023-01-28T10:36:57;101415.89;;;0.65;78.20
57024;BME280;42916;54.346;18.562;2023-01-28T10:39:25;101414.04;;;0.65;77.98
57024;BME280;42916;54.346;18.562;2023-01-28T10:41:52;101402.38;;;0.66;77.79
57024;BME280;42916;54.346;18.562;2023-01-28T10:44:28;101399.42;;;0.65;77.71
57024;BME280;42916;54.346;18.562;2023-01-28T10:47:01;101398.21;;;0.65;77.48
57024;BME280;42916;54.346;18.562;2023-01-28T10:49:30;101401.07;;;0.65;77.60
57024;BME280;42916;54.346;18.562;2023-01-28T10:52:10;101397.25;;;0.62;76.66
57024;BME280;42916;54.346;18.562;2023-01-28T10:54:36;101396.54;;;0.60;76.90
57024;BME280;42916;54.346;18.562;2023-01-28T10:57:08;101390.31;;;0.60;77.05
57024;BME280;42916;54.346;18.562;2023-01-28T10:59:38;101386.64;;;0.60;77.01
57024;BME280;42916;54.346;18.562;2023-01-28T11:05:14;101389.98;;;0.62;76.85
57024;BME280;42916;54.346;18.562;2023-01-28T11:07:47;101392.66;;;0.58;76.49
57024;BME280;42916;54.346;18.562;2023-01-28T11:10:33;101386.53;;;0.52;76.21
57024;BME280;42916;54.346;18.562;2023-01-28T11:13:03;101383.67;;;0.52;76.61
57024;BME280;42916;54.346;18.562;2023-01-28T11:15:31;101384.73;;;0.52;76.53
57024;BME280;42916;54.346;18.562;2023-01-28T11:18:05;101387.42;;;0.55;76.53
57024;BME280;42916;54.346;18.562;2023-01-28T11:20:49;101388.12;;;0.59;76.31
57024;BME280;42916;54.346;18.562;2023-01-28T11:23:29;101381.52;;;0.62;76.23
57024;BME280;42916;54.346;18.562;2023-01-28T11:26:36;101377.04;;;0.67;76.15
57024;BME280;42916;54.346;18.562;2023-01-28T11:29:04;101380.42;;;0.69;75.39
57024;BME280;42916;54.346;18.562;2023-01-28T11:31:40;101385.27;;;0.70;75.44
57024;BME280;42916;54.346;18.562;2023-01-28T11:34:14;101386.02;;;0.73;75.55
57024;BME280;42916;54.346;18.562;2023-01-28T11:36:50;101370.91;;;0.78;75.41
57024;BME280;42916;54.346;18.562;2023-01-28T11:39:21;101366.87;;;0.81;75.62
57024;BME280;42916;54.346;18.562;2023-01-28T11:41:50;101369.34;;;0.84;75.45
57024;BME280;42916;54.346;18.562;2023-01-28T11:44:25;101366.26;;;0.88;75.68
57024;BME280;42916;54.346;18.562;2023-01-28T11:49:56;101352.91;;;0.94;75.37
57024;BME280;42916;54.346;18.562;2023-01-28T11:52:32;101354.69;;;0.97;75.35
57024;BME280;42916;54.346;18.562;2023-01-28T11:55:20;101358.15;;;1.00;75.30
57024;BME280;42916;54.346;18.562;2023-01-28T12:01:14;101353.73;;;1.11;74.97
57024;BME280;42916;54.346;18.562;2023-01-28T12:06:50;101342.33;;;1.14;75.03
57024;BME280;42916;54.346;18.562;2023-01-28T12:23:29;101324.80;;;1.14;74.48
57024;BME280;42916;54.346;18.562;2023-01-28T12:26:15;101329.34;;;1.12;74.35
57024;BME280;42916;54.346;18.562;2023-01-28T12:32:15;101317.85;;;1.09;74.34
57024;BME280;42916;54.346;18.562;2023-01-28T12:43:18;101320.95;;;1.04;74.45
57024;BME280;42916;54.346;18.562;2023-01-28T12:45:56;101321.10;;;1.05;74.64
57024;BME280;42916;54.346;18.562;2023-01-28T12:48:41;101311.61;;;1.07;74.60
57024;BME280;42916;54.346;18.562;2023-01-28T12:51:15;101303.66;;;1.10;74.85
57024;BME280;42916;54.346;18.562;2023-01-28T12:54:00;101296.50;;;1.13;75.13
57024;BME280;42916;54.346;18.562;2023-01-28T12:56:35;101294.94;;;1.12;75.03
57024;BME280;42916;54.346;18.562;2023-01-28T12:59:11;101295.06;;;1.12;75.22
57024;BME280;42916;54.346;18.562;2023-01-28T13:01:47;101294.10;;;1.10;75.38
57024;BME280;42916;54.346;18.562;2023-01-28T13:04:33;101298.38;;;1.12;75.46
57024;BME280;42916;54.346;18.562;2023-01-28T13:07:16;101295.26;;;1.16;75.36
57024;BME280;42916;54.346;18.562;2023-01-28T13:10:13;101283.85;;;1.19;75.87
57024;BME280;42916;54.346;18.562;2023-01-28T13:12:43;101273.70;;;1.24;75.89
57024;BME280;42916;54.346;18.562;2023-01-28T13:15:12;101269.41;;;1.28;75.89
57024;BME280;42916;54.346;18.562;2023-01-28T13:17:53;101270.58;;;1.32;75.98
57024;BME280;42916;54.346;18.562;2023-01-28T13:20:48;101267.98;;;1.33;75.87
57024;BME280;42916;54.346;18.562;2023-01-28T13:28:47;101255.45;;;1.38;76.01
57024;BME280;42916;54.346;18.562;2023-01-28T13:31:17;101252.25;;;1.35;75.78
57024;BME280;42916;54.346;18.562;2023-01-28T13:33:59;101244.75;;;1.31;75.62
57024;BME280;42916;54.346;18.562;2023-01-28T13:36:30;101242.75;;;1.30;75.83
57024;BME280;42916;54.346;18.562;2023-01-28T13:39:14;101241.14;;;1.32;75.65
57024;BME280;42916;54.346;18.562;2023-01-28T13:44:33;101248.88;;;1.32;75.76
57024;BME280;42916;54.346;18.562;2023-01-28T13:49:43;101246.16;;;1.30;75.82
57024;BME280;42916;54.346;18.562;2023-01-28T13:52:15;101256.48;;;1.29;75.80
57024;BME280;42916;54.346;18.562;2023-01-28T13:54:50;101252.68;;;1.26;75.81
57024;BME280;42916;54.346;18.562;2023-01-28T14:20:00;101219.55;;;1.18;76.35
57024;BME280;42916;54.346;18.562;2023-01-28T14:22:27;101217.23;;;1.18;76.63
57024;BME280;42916;54.346;18.562;2023-01-28T14:24:57;101208.16;;;1.15;76.56
57024;BME280;42916;54.346;18.562;2023-01-28T14:27:30;101206.80;;;1.11;76.60
57024;BME280;42916;54.346;18.562;2023-01-28T14:32:32;101206.27;;;0.99;76.72
57024;BME280;42916;54.346;18.562;2023-01-28T14:35:05;101215.46;;;0.93;76.70
57024;BME280;42916;54.346;18.562;2023-01-28T14:37:33;101207.38;;;0.89;76.72
57024;BME280;42916;54.346;18.562;2023-01-28T14:40:06;101195.56;;;0.84;76.78
57024;BME280;42916;54.346;18.562;2023-01-28T14:42:39;101196.15;;;0.79;76.87
57024;BME280;42916;54.346;18.562;2023-01-28T14:45:18;101195.83;;;0.74;77.12
57024;BME280;42916;54.346;18.562;2023-01-28T14:48:24;101195.44;;;0.69;77.18